createdAt,value
2022-08-05T00:01:30.768Z,43.83
2022-08-05T00:04:03.449Z,44.55
2022-08-05T00:06:33.377Z,44.83
2022-08-05T00:09:03.081Z,44.66
2022-08-05T00:11:30.612Z,45.11
2022-08-05T00:14:12.071Z,44.94
2022-08-05T00:16:53.372Z,45.16
2022-08-05T00:19:22.657Z,45.45
2022-08-05T00:21:50.127Z,45.69
2022-08-05T00:24:19.157Z,46.71
2022-08-05T00:26:52.195Z,47.26
2022-08-05T00:29:22.692Z,47.42
2022-08-05T00:32:10.206Z,48.35
2022-08-05T00:35:03.564Z,49.36
2022-08-05T00:37:35.444Z,49.92
2022-08-05T00:40:27.929Z,51.07
2022-08-05T00:42:59.115Z,51.90
2022-08-05T00:45:37.821Z,52.50
2022-08-05T00:48:07.480Z,52.89
2022-08-05T00:50:34.215Z,53.47
2022-08-05T00:53:00.917Z,54.42
2022-08-05T00:55:34.022Z,54.46
2022-08-05T00:58:11.262Z,54.67
2022-08-05T01:00:38.601Z,54.87
2022-08-05T01:03:07.875Z,54.73
2022-08-05T01:05:34.913Z,55.63
2022-08-05T01:08:41.597Z,56.40
2022-08-05T01:10:54.475Z,57.35
2022-08-05T01:13:58.872Z,57.80
2022-08-05T01:16:37.222Z,57.89
2022-08-05T01:19:46.177Z,58.07
2022-08-05T01:22:27.829Z,58.40
2022-08-05T01:25:23.564Z,58.86
2022-08-05T01:28:36.326Z,59.35
2022-08-05T01:31:21.545Z,58.42
2022-08-05T01:34:03.228Z,59.23
2022-08-05T01:36:34.013Z,58.43
2022-08-05T01:39:01.502Z,59.46
2022-08-05T01:41:34.740Z,59.83
2022-08-05T01:44:06.797Z,60.61
2022-08-05T01:46:42.529Z,61.29
2022-08-05T01:49:23.971Z,61.02
2022-08-05T01:51:58.386Z,62.01
2022-08-05T01:54:30.063Z,62.67
2022-08-05T01:58:10.637Z,61.52
2022-08-05T01:59:48.257Z,61.44
2022-08-05T02:02:17.698Z,62.15
2022-08-05T02:04:46.265Z,62.89
2022-08-05T02:07:21.581Z,62.87
2022-08-05T02:09:48.798Z,61.99
2022-08-05T02:12:19.794Z,62.13
2022-08-05T02:14:52.500Z,62.30
2022-08-05T02:18:32.146Z,62.33
2022-08-05T02:20:27.802Z,62.58
2022-08-05T02:22:59.927Z,62.65
2022-08-05T02:25:33.139Z,62.57
2022-08-05T02:28:00.920Z,62.73
2022-08-05T02:30:33.316Z,63.79
2022-08-05T02:33:02.234Z,64.72
2022-08-05T02:35:37.794Z,64.93
2022-08-05T02:38:12.399Z,66.11
2022-08-05T02:40:46.481Z,67.33
2022-08-05T02:43:16.617Z,67.79
2022-08-05T02:45:52.806Z,66.95
2022-08-05T02:48:29.143Z,67.26
2022-08-05T02:50:59.789Z,67.86
2022-08-05T02:53:27.778Z,68.72
2022-08-05T02:56:00.392Z,69.03
2022-08-05T02:58:30.588Z,69.09
2022-08-05T03:01:00.335Z,68.84
2022-08-05T03:03:34.174Z,69.63
2022-08-05T03:06:55.155Z,70.24
2022-08-05T03:09:04.480Z,69.27
2022-08-05T03:11:54.487Z,69.63
2022-08-05T03:14:18.044Z,68.24
2022-08-05T03:16:45.638Z,68.15
2022-08-05T03:19:16.911Z,67.41
2022-08-05T03:21:49.597Z,67.09
2022-08-05T03:24:29.529Z,66.65
2022-08-05T03:26:56.334Z,66.64
2022-08-05T03:29:23.933Z,66.37
2022-08-05T03:31:55.752Z,65.89
2022-08-05T03:34:24.406Z,65.93
2022-08-05T03:36:51.054Z,67.45
2022-08-05T03:39:20.351Z,67.57
2022-08-05T03:41:53.314Z,67.91
2022-08-05T03:44:23.024Z,67.93
2022-08-05T03:46:49.605Z,69.31
2022-08-05T03:49:16.066Z,72.47
2022-08-05T03:52:48.602Z,78.75
2022-08-05T03:56:06.147Z,79.61
2022-08-05T03:57:51.965Z,82.82
2022-08-05T04:00:25.897Z,80.47
2022-08-05T04:02:58.389Z,80.68
2022-08-05T04:05:36.084Z,81.37
2022-08-05T04:08:29.706Z,82.13
2022-08-05T04:10:53.359Z,80.05
2022-08-05T04:13:21.572Z,80.10
2022-08-05T04:15:52.767Z,80.52
2022-08-05T04:18:30.070Z,82.22
2022-08-05T04:20:57.675Z,82.01
2022-08-05T04:23:57.329Z,80.99
2022-08-05T04:26:17.421Z,80.72
2022-08-05T04:28:51.122Z,81.13
2022-08-05T04:31:18.635Z,80.88
2022-08-05T04:34:18.639Z,82.28
2022-08-05T04:36:45.164Z,82.85
2022-08-05T04:39:13.265Z,82.11
2022-08-05T04:41:39.790Z,81.36
2022-08-05T04:44:09.329Z,80.62
2022-08-05T04:46:37.161Z,79.06
2022-08-05T04:49:05.336Z,75.32
2022-08-05T04:51:38.892Z,75.38
2022-08-05T04:54:05.378Z,73.94
2022-08-05T04:56:36.857Z,74.20
2022-08-05T04:59:21.789Z,74.08
2022-08-05T05:02:35.162Z,73.06
2022-08-05T05:04:38.490Z,70.82
2022-08-05T05:07:11.583Z,70.87
2022-08-05T05:09:42.287Z,68.93
2022-08-05T05:12:10.840Z,69.95
2022-08-05T05:14:38.181Z,68.19
2022-08-05T05:17:17.738Z,69.34
2022-08-05T05:19:50.238Z,68.44
2022-08-05T05:22:23.526Z,67.81
2022-08-05T05:24:58.389Z,66.36
2022-08-05T05:27:41.735Z,65.39
2022-08-05T05:30:29.136Z,65.72
2022-08-05T05:33:00.770Z,65.94
2022-08-05T05:35:28.978Z,65.90
2022-08-05T05:38:02.136Z,65.72
2022-08-05T05:40:30.156Z,66.55
2022-08-05T05:42:59.452Z,68.51
2022-08-05T05:45:26.373Z,69.63
2022-08-05T05:48:06.094Z,70.76
2022-08-05T05:50:40.987Z,69.95
2022-08-05T05:53:21.473Z,68.63
2022-08-05T05:55:52.450Z,69.16
2022-08-05T05:58:31.814Z,68.92
2022-08-05T06:01:02.075Z,68.09
2022-08-05T06:03:54.398Z,68.19
2022-08-05T06:06:27.775Z,67.29
2022-08-05T06:08:57.138Z,67.18
2022-08-05T06:11:23.574Z,67.63
2022-08-05T06:13:53.632Z,67.13
2022-08-05T06:16:30.696Z,67.54
2022-08-05T06:19:05.387Z,67.54
2022-08-05T06:21:36.855Z,67.24
2022-08-05T06:24:12.146Z,66.93
2022-08-05T06:26:51.322Z,65.22
2022-08-05T06:29:25.286Z,64.39
2022-08-05T06:32:21.230Z,63.52
2022-08-05T06:34:53.482Z,62.79
2022-08-05T06:37:56.203Z,62.34
2022-08-05T06:40:09.655Z,62.55
2022-08-05T06:42:37.224Z,62.81
2022-08-05T06:45:08.890Z,61.87
2022-08-05T06:48:47.115Z,60.87
2022-08-05T06:50:22.373Z,61.08
2022-08-05T06:52:58.684Z,61.13
2022-08-05T06:55:30.133Z,61.19
2022-08-05T06:58:29.186Z,61.13
2022-08-05T07:00:49.214Z,62.78
2022-08-05T07:03:16.730Z,61.58
2022-08-05T07:05:44.023Z,62.02
2022-08-05T07:08:12.789Z,61.58
2022-08-05T07:10:53.048Z,61.44
2022-08-05T07:13:59.308Z,60.15
2022-08-05T07:18:01.163Z,59.89
2022-08-05T07:20:29.866Z,58.16
2022-08-05T07:22:22.064Z,58.36
2022-08-05T07:24:55.947Z,56.95
2022-08-05T07:27:22.861Z,55.22
2022-08-05T07:30:27.918Z,53.36
2022-08-05T07:32:40.689Z,51.19
2022-08-05T07:36:04.848Z,50.45
2022-08-05T07:37:55.625Z,49.72
2022-08-05T07:40:31.721Z,48.93
2022-08-05T07:42:59.246Z,47.96
2022-08-05T07:45:56.460Z,47.52
2022-08-05T07:48:21.161Z,46.60
2022-08-05T07:51:05.221Z,44.49
2022-08-05T07:53:51.601Z,42.25
2022-08-05T07:57:01.154Z,41.54
2022-08-05T07:59:05.031Z,42.24
2022-08-05T08:01:35.042Z,43.44
2022-08-05T08:04:07.942Z,44.18
2022-08-05T08:06:34.399Z,45.55
2022-08-05T08:09:00.825Z,46.65
2022-08-05T08:11:48.262Z,44.87
2022-08-05T08:14:18.253Z,42.46
2022-08-05T08:16:51.470Z,40.56
2022-08-05T08:20:10.159Z,38.50
2022-08-05T08:22:09.048Z,38.22
2022-08-05T08:24:51.868Z,37.59
2022-08-05T08:27:18.567Z,36.77
2022-08-05T08:30:06.170Z,35.46
2022-08-05T08:32:36.158Z,34.77
2022-08-05T08:35:13.701Z,34.70
2022-08-05T08:37:40.434Z,38.67
2022-08-05T08:40:11.987Z,37.94
2022-08-05T08:42:46.805Z,36.39
2022-08-05T08:45:27.230Z,35.89
2022-08-05T08:48:12.922Z,34.83
2022-08-05T08:51:07.746Z,35.43
2022-08-05T08:53:37.377Z,34.52
2022-08-05T08:56:06.293Z,34.24
2022-08-05T08:58:43.801Z,33.52
2022-08-05T09:01:15.838Z,33.00
2022-08-05T09:03:46.717Z,32.76
2022-08-05T09:06:18.484Z,32.64
2022-08-05T09:08:46.568Z,33.03
2022-08-05T09:11:14.825Z,32.57
2022-08-05T09:14:09.804Z,32.30
2022-08-05T09:16:29.745Z,32.38
2022-08-05T09:18:56.407Z,33.19
2022-08-05T09:22:22.972Z,32.96
2022-08-05T09:24:15.396Z,32.66
2022-08-05T09:26:46.161Z,32.07
2022-08-05T09:29:17.606Z,33.50
2022-08-05T09:32:45.520Z,33.27
2022-08-05T09:34:55.164Z,33.67
2022-08-05T09:38:17.119Z,33.34
2022-08-05T09:40:29.665Z,34.33
2022-08-05T09:42:56.146Z,34.14
2022-08-05T09:46:07.106Z,33.49
2022-08-05T09:48:26.839Z,32.64
2022-08-05T09:51:01.025Z,32.90
2022-08-05T09:53:53.853Z,32.52
2022-08-05T09:56:25.191Z,33.14
2022-08-05T09:59:04.109Z,32.71
2022-08-05T10:01:36.386Z,32.44
2022-08-05T10:04:13.595Z,33.46
2022-08-05T10:06:58.707Z,34.68
2022-08-05T10:09:28.291Z,34.26
2022-08-05T10:12:31.358Z,32.70
2022-08-05T10:15:13.763Z,32.77
2022-08-05T10:17:47.422Z,33.02
2022-08-05T10:20:23.835Z,33.35
2022-08-05T10:22:52.539Z,33.35
2022-08-05T10:25:19.685Z,33.07
2022-08-05T10:28:12.727Z,33.37
2022-08-05T10:32:47.233Z,32.98
2022-08-05T10:33:25.628Z,33.83
2022-08-05T10:35:59.994Z,33.56
2022-08-05T10:38:29.279Z,33.25
2022-08-05T10:41:12.444Z,33.46
2022-08-05T10:43:59.323Z,33.37
2022-08-05T10:46:43.459Z,33.67
2022-08-05T10:49:16.518Z,34.02
2022-08-05T10:51:57.336Z,34.23
2022-08-05T10:54:46.886Z,34.30
2022-08-05T10:57:32.348Z,34.94
2022-08-05T11:00:24.414Z,36.16
2022-08-05T11:03:24.677Z,37.35
2022-08-05T11:06:15.179Z,37.33
2022-08-05T11:09:17.334Z,36.74
2022-08-05T11:11:53.552Z,37.12
2022-08-05T11:14:57.458Z,36.26
2022-08-05T11:17:59.134Z,35.76
2022-08-05T11:20:44.182Z,36.07
2022-08-05T11:23:49.893Z,35.35
2022-08-05T11:26:16.225Z,36.57
2022-08-05T11:28:55.781Z,37.30
2022-08-05T11:31:57.714Z,38.01
2022-08-05T11:34:18.086Z,37.93
2022-08-05T11:36:52.916Z,37.85
2022-08-05T11:39:49.046Z,37.56
2022-08-05T11:42:18.490Z,38.78
2022-08-05T11:44:54.183Z,38.77
2022-08-05T11:47:48.283Z,38.98
2022-08-05T11:50:09.872Z,38.27
2022-08-05T11:52:41.215Z,38.59
2022-08-05T11:55:11.380Z,38.39
2022-08-05T11:58:09.298Z,37.53
2022-08-05T12:00:32.167Z,37.38
2022-08-05T12:03:28.781Z,36.35
2022-08-05T12:06:03.264Z,35.33
2022-08-05T12:08:32.986Z,35.10
2022-08-05T12:11:05.806Z,36.04
2022-08-05T12:13:49.214Z,36.73
2022-08-05T12:16:18.520Z,36.57
2022-08-05T12:18:52.427Z,36.05
2022-08-05T12:21:26.935Z,37.13
2022-08-05T12:24:17.291Z,37.16
2022-08-05T12:26:50.144Z,37.94
2022-08-05T12:29:23.098Z,37.24
2022-08-05T12:31:54.323Z,37.79
2022-08-05T12:34:31.362Z,38.45
2022-08-05T12:37:00.992Z,38.31
2022-08-05T12:39:37.247Z,38.29
2022-08-05T12:42:14.772Z,39.26
2022-08-05T12:44:43.005Z,39.23
2022-08-05T12:47:12.572Z,38.86
2022-08-05T12:50:03.753Z,39.59
2022-08-05T12:52:39.562Z,39.70
2022-08-05T12:55:26.480Z,39.79
2022-08-05T12:58:48.358Z,38.96
2022-08-05T13:02:02.843Z,39.57
2022-08-05T13:03:32.224Z,39.79
2022-08-05T13:06:00.861Z,40.21
2022-08-05T13:08:30.199Z,40.59
2022-08-05T13:11:04.367Z,41.66
2022-08-05T13:14:05.170Z,42.21
2022-08-05T13:16:19.513Z,43.77
2022-08-05T13:18:55.162Z,44.54
2022-08-05T13:21:28.395Z,44.78
2022-08-05T13:24:04.803Z,45.47
2022-08-05T13:26:31.327Z,45.64
2022-08-05T13:28:59.177Z,45.11
2022-08-05T13:32:04.549Z,45.27
2022-08-05T13:34:23.461Z,46.24
2022-08-05T13:36:53.271Z,45.85
2022-08-05T13:40:13.838Z,45.76
2022-08-05T13:42:06.719Z,46.44
2022-08-05T13:44:34.632Z,46.21
2022-08-05T13:47:05.044Z,46.42
2022-08-05T13:49:36.015Z,46.71
2022-08-05T13:52:29.827Z,47.36
2022-08-05T13:54:59.263Z,48.09
2022-08-05T13:57:27.691Z,48.11
2022-08-05T14:00:14.489Z,47.76
2022-08-05T14:02:42.532Z,48.56
2022-08-05T14:05:11.997Z,48.78
2022-08-05T14:08:01.130Z,49.61
2022-08-05T14:10:31.102Z,49.84
2022-08-05T14:12:58.314Z,50.64
2022-08-05T14:16:05.783Z,49.96
2022-08-05T14:18:15.304Z,49.61
2022-08-05T14:20:48.763Z,49.50
2022-08-05T14:23:23.410Z,50.52
2022-08-05T14:25:54.312Z,51.36
2022-08-05T14:28:26.962Z,51.95
2022-08-05T14:30:54.687Z,51.88
2022-08-05T14:33:22.726Z,52.34
2022-08-05T14:35:51.892Z,49.95
2022-08-05T14:38:32.937Z,49.82
2022-08-05T14:41:06.891Z,49.23
2022-08-05T14:44:01.510Z,50.18
2022-08-05T14:46:29.031Z,50.02
2022-08-05T14:48:58.994Z,49.99
2022-08-05T14:51:30.693Z,50.88
2022-08-05T14:54:26.087Z,51.03
2022-08-05T14:56:46.792Z,50.54
2022-08-05T14:59:14.440Z,49.34
2022-08-05T15:01:47.963Z,50.34
2022-08-05T15:04:17.299Z,50.92
2022-08-05T15:06:49.426Z,50.81
2022-08-05T15:09:16.674Z,49.79
2022-08-05T15:12:04.031Z,50.00
2022-08-05T15:14:35.551Z,50.17
2022-08-05T15:17:44.280Z,50.97
2022-08-05T15:19:55.980Z,51.02
2022-08-05T15:22:27.039Z,50.48
2022-08-05T15:24:55.738Z,50.68
2022-08-05T15:27:22.179Z,50.40
2022-08-05T15:29:52.756Z,50.91
2022-08-05T15:32:20.790Z,50.99
2022-08-05T15:34:53.718Z,50.83
2022-08-05T15:38:08.559Z,51.59
2022-08-05T15:41:00.016Z,51.64
2022-08-05T15:42:59.075Z,52.04
2022-08-05T15:45:38.241Z,52.74
2022-08-05T15:48:05.619Z,53.03
2022-08-05T15:50:33.520Z,52.95
2022-08-05T15:53:04.141Z,53.06
2022-08-05T15:56:02.511Z,52.73
2022-08-05T15:58:18.811Z,53.91
2022-08-05T16:01:03.466Z,54.18
2022-08-05T16:03:33.837Z,54.71
2022-08-05T16:06:00.391Z,54.22
2022-08-05T16:08:30.692Z,55.06
2022-08-05T16:10:57.917Z,56.13
2022-08-05T16:13:34.153Z,56.16
2022-08-05T16:16:01.168Z,56.52
2022-08-05T16:18:29.703Z,57.13
2022-08-05T16:20:56.125Z,57.41
2022-08-05T16:23:22.565Z,57.34
2022-08-05T16:25:49.832Z,58.72
2022-08-05T16:28:22.363Z,60.58
2022-08-05T16:30:52.044Z,62.80
2022-08-05T16:33:19.449Z,64.97
2022-08-05T16:35:49.920Z,67.16
2022-08-05T16:38:25.717Z,68.99
2022-08-05T16:41:00.926Z,71.40
2022-08-05T16:43:33.570Z,73.48
2022-08-05T16:46:04.638Z,75.28
2022-08-05T16:48:35.294Z,75.65
2022-08-05T16:51:02.308Z,76.25
2022-08-05T16:54:05.210Z,74.58
2022-08-05T16:56:22.070Z,71.88
2022-08-05T16:58:50.408Z,70.00
2022-08-05T17:01:17.035Z,67.05
2022-08-05T17:03:45.455Z,66.20
2022-08-05T17:06:11.966Z,64.61
2022-08-05T17:08:52.999Z,64.00
2022-08-05T17:11:25.745Z,63.66
2022-08-05T17:13:54.791Z,63.20
2022-08-05T17:16:33.567Z,63.18
2022-08-05T17:19:02.259Z,63.11
2022-08-05T17:21:35.427Z,62.87
2022-08-05T17:24:14.383Z,61.08
2022-08-05T17:26:50.788Z,60.00
2022-08-05T17:29:17.287Z,60.38
2022-08-05T17:31:59.031Z,59.67
2022-08-05T17:34:29.829Z,59.81
2022-08-05T17:36:59.868Z,60.14
2022-08-05T17:39:34.184Z,60.48
2022-08-05T17:42:19.729Z,60.11
2022-08-05T17:44:50.208Z,60.07
2022-08-05T17:47:22.594Z,59.39
2022-08-05T17:50:03.918Z,59.68
2022-08-05T17:52:34.689Z,61.05
2022-08-05T17:55:20.806Z,61.15
2022-08-05T17:57:48.755Z,61.70
2022-08-05T18:00:17.309Z,62.21
2022-08-05T18:02:46.729Z,63.05
2022-08-05T18:05:13.690Z,63.28
2022-08-05T18:07:44.448Z,65.06
2022-08-05T18:10:20.503Z,67.25
2022-08-05T18:12:51.108Z,66.79
2022-08-05T18:15:17.981Z,66.93
2022-08-05T18:18:00.596Z,67.92
2022-08-05T18:20:32.425Z,68.38
2022-08-05T18:23:09.271Z,69.40
2022-08-05T18:25:38.921Z,69.93
2022-08-05T18:28:06.112Z,70.23
2022-08-05T18:30:33.322Z,70.82
2022-08-05T18:33:01.256Z,71.50
2022-08-05T18:35:59.927Z,73.11
2022-08-05T18:38:19.313Z,73.51
2022-08-05T18:41:54.351Z,73.78
2022-08-05T18:43:43.079Z,74.81
2022-08-05T18:46:14.986Z,75.98
2022-08-05T18:48:41.999Z,76.23
2022-08-05T18:52:05.359Z,76.14
2022-08-05T18:54:14.494Z,76.90
2022-08-05T18:56:41.625Z,76.51
2022-08-05T18:59:42.010Z,77.81
2022-08-05T19:02:04.635Z,77.79
2022-08-05T19:05:01.032Z,78.66
2022-08-05T19:07:24.851Z,78.80
2022-08-05T19:09:56.800Z,79.15
2022-08-05T19:12:23.952Z,78.91
2022-08-05T19:15:00.644Z,79.66
2022-08-05T19:17:59.400Z,79.93
2022-08-05T19:20:15.282Z,80.77
2022-08-05T19:22:42.893Z,78.83
2022-08-05T19:25:10.585Z,79.25
2022-08-05T19:27:48.190Z,80.04
2022-08-05T19:30:16.830Z,78.93
2022-08-05T19:32:47.160Z,79.50
2022-08-05T19:35:13.705Z,78.87
2022-08-05T19:38:04.420Z,78.34
2022-08-05T19:40:28.503Z,78.64
2022-08-05T19:43:04.719Z,78.16
2022-08-05T19:45:36.292Z,78.15
2022-08-05T19:48:03.399Z,78.78
2022-08-05T19:50:31.918Z,78.08
2022-08-05T19:52:58.532Z,78.48
2022-08-05T19:56:12.511Z,76.53
2022-08-05T19:58:27.445Z,76.28
2022-08-05T20:00:55.480Z,76.22
2022-08-05T20:03:22.610Z,76.63
2022-08-05T20:05:51.288Z,77.18
2022-08-05T20:08:18.207Z,75.73
2022-08-05T20:10:44.662Z,75.57
2022-08-05T20:13:15.984Z,75.68
2022-08-05T20:15:48.407Z,74.91
2022-08-05T20:18:33.733Z,75.34
2022-08-05T20:21:04.763Z,73.32
2022-08-05T20:23:40.239Z,72.65
2022-08-05T20:26:18.100Z,72.70
2022-08-05T20:29:01.664Z,71.96
2022-08-05T20:31:42.995Z,71.83
2022-08-05T20:34:16.128Z,72.24
2022-08-05T20:36:43.824Z,72.41
2022-08-05T20:39:13.007Z,71.88
2022-08-05T20:41:43.988Z,72.75
2022-08-05T20:44:17.171Z,72.31
2022-08-05T20:46:46.421Z,71.76
2022-08-05T20:49:13.757Z,71.27
2022-08-05T20:51:40.291Z,70.69
2022-08-05T20:54:06.900Z,70.92
2022-08-05T20:56:42.438Z,69.38
2022-08-05T20:59:19.394Z,69.35
2022-08-05T21:01:56.337Z,69.00
2022-08-05T21:04:24.314Z,68.61
2022-08-05T21:06:53.908Z,68.46
2022-08-05T21:09:20.343Z,67.82
2022-08-05T21:12:09.643Z,67.61
2022-08-05T21:14:35.163Z,67.93
2022-08-05T21:17:03.015Z,68.68
2022-08-05T21:19:46.955Z,68.97
2022-08-05T21:22:18.683Z,69.30
2022-08-05T21:24:48.903Z,69.13
2022-08-05T21:27:20.605Z,68.75
2022-08-05T21:29:51.294Z,67.85
2022-08-05T21:32:20.140Z,68.34
2022-08-05T21:34:56.032Z,67.06
2022-08-05T21:37:33.349Z,66.10
2022-08-05T21:40:05.717Z,65.48
2022-08-05T21:42:44.019Z,66.01
2022-08-05T21:45:11.938Z,65.21
2022-08-05T21:47:55.775Z,64.55
2022-08-05T21:50:24.133Z,64.59
2022-08-05T21:52:50.625Z,64.44
2022-08-05T21:55:21.609Z,64.05
2022-08-05T21:58:05.441Z,65.07
2022-08-05T22:00:31.990Z,64.78
2022-08-05T22:02:58.505Z,64.93
2022-08-05T22:05:27.481Z,65.78
2022-08-05T22:07:59.161Z,65.91
2022-08-05T22:10:29.004Z,66.12
2022-08-05T22:12:57.504Z,66.00
2022-08-05T22:16:01.499Z,66.36
2022-08-05T22:18:13.094Z,66.75
2022-08-05T22:20:41.320Z,67.36
2022-08-05T22:24:02.701Z,68.81
2022-08-05T22:26:32.801Z,70.12
2022-08-05T22:29:00.206Z,69.32
2022-08-05T22:31:30.114Z,70.24
2022-08-05T22:34:01.110Z,70.38
2022-08-05T22:36:28.276Z,70.71
2022-08-05T22:38:56.768Z,71.08
2022-08-05T22:42:04.133Z,71.21
2022-08-05T22:44:12.003Z,71.44
2022-08-05T22:46:39.891Z,72.21
2022-08-05T22:49:12.345Z,73.38
2022-08-05T22:52:04.579Z,73.65
2022-08-05T22:54:34.890Z,72.88
2022-08-05T22:57:01.377Z,69.35
2022-08-05T22:59:44.032Z,66.48
2022-08-05T23:02:16.666Z,63.09
2022-08-05T23:04:43.798Z,61.46
2022-08-05T23:07:18.517Z,61.61
2022-08-05T23:09:57.854Z,60.76
2022-08-05T23:12:32.576Z,60.19
2022-08-05T23:15:03.426Z,59.40
2022-08-05T23:17:32.690Z,59.00
2022-08-05T23:20:02.997Z,59.11
2022-08-05T23:22:29.746Z,59.77
2022-08-05T23:24:57.496Z,60.20
2022-08-05T23:27:24.199Z,60.69
2022-08-05T23:29:55.888Z,60.20
2022-08-05T23:32:22.604Z,60.92
2022-08-05T23:34:49.788Z,60.33
2022-08-05T23:37:18.003Z,61.36
2022-08-05T23:39:54.156Z,60.74
2022-08-05T23:42:23.550Z,60.59
2022-08-05T23:44:55.974Z,60.58
2022-08-05T23:47:22.535Z,60.78
2022-08-05T23:49:51.998Z,61.15
2022-08-05T23:52:29.218Z,60.71
2022-08-05T23:55:07.146Z,59.67
2022-08-05T23:57:35.835Z,59.91
